Time;durP1;ratioP1;P1;durP2;ratioP2;P2;SDS_P1;SDS_P2;PMS_P1;PMS_P2;Temp;Humidity;BMP_temperature;BMP_pressure;BME280_temperature;BME280_humidity;BME280_pressure;Samples;Min_cycle;Max_cycle;Signal;HPM_P1;HPM_P2
2021/12/05 00:24:03;;;;;;;9.38;3.88;;;4.20;99.90;;;;;;5098252;28;20051;-72
2021/12/05 00:26:31;;;;;;;12.10;4.45;;;4.30;99.90;;;;;;5080622;28;20060;-72
2021/12/05 00:29:09;;;;;;;10.00;4.05;;;4.30;99.90;;;;;;5078925;28;20488;-72
2021/12/05 00:31:56;;;;;;;8.98;3.97;;;4.30;99.90;;;;;;5108848;28;20058;-72
2021/12/05 00:45:11;;;;;;;12.10;4.20;;;4.40;99.90;;;;;;5099094;28;20135;-71
2021/12/05 00:47:47;;;;;;;9.65;3.70;;;4.40;99.90;;;;;;5085122;28;20163;-72
2021/12/05 00:51:02;;;;;;;13.80;4.40;;;4.40;99.90;;;;;;5065173;28;20082;-72
2021/12/05 01:09:43;;;;;;;10.77;4.25;;;4.40;99.90;;;;;;5101690;28;20036;-70
2021/12/05 01:14:58;;;;;;;13.95;4.57;;;4.20;99.90;;;;;;5104182;28;20083;-70
2021/12/05 01:17:33;;;;;;;11.82;4.57;;;4.20;99.90;;;;;;5102598;28;20040;-71
2021/12/05 01:20:00;;;;;;;9.80;4.40;;;4.20;99.90;;;;;;5082527;28;20044;-71
2021/12/05 01:22:31;;;;;;;17.35;5.38;;;4.20;99.90;;;;;;5078815;28;20511;-70
2021/12/05 01:27:44;;;;;;;17.17;5.40;;;4.20;99.90;;;;;;5081283;28;20062;-70
2021/12/05 01:30:26;;;;;;;15.50;5.05;;;4.50;99.90;;;;;;5081197;28;20123;-70
2021/12/05 01:38:11;;;;;;;14.63;6.30;;;4.20;99.90;;;;;;5086541;28;20040;-70
2021/12/05 01:49:48;;;;;;;23.88;8.65;;;4.20;99.90;;;;;;5041457;28;20099;-70
2021/12/05 02:02:53;;;;;;;20.58;9.20;;;4.30;99.90;;;;;;5078242;28;20579;-70
2021/12/05 02:15:18;;;;;;;21.35;10.10;;;4.30;99.90;;;;;;5085257;28;20048;-71
2021/12/05 02:35:19;;;;;;;30.42;11.00;;;4.10;99.90;;;;;;5082140;28;20112;-70
2021/12/05 02:43:10;;;;;;;26.48;11.18;;;4.00;99.90;;;;;;5080561;28;20048;-70
2021/12/05 02:45:40;;;;;;;25.52;10.88;;;4.00;99.90;;;;;;5084894;28;20188;-70
2021/12/05 02:48:07;;;;;;;27.67;10.80;;;4.00;99.90;;;;;;5100539;28;20040;-70
2021/12/05 02:50:37;;;;;;;20.27;10.20;;;3.90;99.90;;;;;;5082513;28;20044;-70
2021/12/05 02:53:31;;;;;;;23.70;10.40;;;3.90;99.90;;;;;;5087300;28;20040;-70
2021/12/05 02:55:52;;;;;;;22.58;10.02;;;3.90;99.90;;;;;;5071864;28;20047;-70
2021/12/05 03:01:14;;;;;;;25.35;11.00;;;3.80;99.90;;;;;;5078514;28;20043;-70
2021/12/05 03:03:40;;;;;;;22.15;10.93;;;3.70;99.90;;;;;;5079926;28;20080;-71
2021/12/05 03:06:17;;;;;;;23.67;10.82;;;3.70;99.90;;;;;;5078720;28;20058;-70
2021/12/05 03:08:45;;;;;;;25.73;10.90;;;3.70;99.90;;;;;;5102598;28;20047;-70
2021/12/05 03:11:10;;;;;;;29.20;11.57;;;3.70;99.90;;;;;;5086276;28;20032;-70
2021/12/05 03:13:40;;;;;;;23.30;10.05;;;3.70;99.90;;;;;;5099453;28;20036;-70
2021/12/05 03:16:08;;;;;;;22.38;9.30;;;3.70;99.90;;;;;;5088517;28;20964;-70
2021/12/05 03:18:34;;;;;;;25.40;10.13;;;3.60;99.90;;;;;;5085576;28;20068;-70
2021/12/05 03:21:01;;;;;;;23.73;8.95;;;3.70;99.90;;;;;;5067935;28;20074;-70
2021/12/05 03:23:27;;;;;;;24.45;9.75;;;3.70;99.90;;;;;;5081872;28;20431;-70
2021/12/05 03:25:54;;;;;;;20.85;9.20;;;3.70;99.90;;;;;;5067833;28;20070;-71
2021/12/05 03:28:19;;;;;;;21.38;8.40;;;3.70;99.90;;;;;;5081130;28;20048;-70
2021/12/05 03:30:46;;;;;;;22.05;9.05;;;3.70;99.90;;;;;;5082848;28;20049;-70
2021/12/05 03:33:11;;;;;;;23.17;8.27;;;3.60;99.90;;;;;;5079506;28;20063;-70
2021/12/05 03:35:37;;;;;;;26.75;9.13;;;3.60;99.90;;;;;;5083239;28;20074;-71
2021/12/05 03:38:04;;;;;;;21.20;8.48;;;3.50;99.90;;;;;;5082814;28;20092;-70
2021/12/05 03:40:31;;;;;;;18.77;7.68;;;3.70;99.90;;;;;;5084204;28;20379;-70
2021/12/05 03:43:04;;;;;;;25.98;7.68;;;3.40;99.90;;;;;;5077019;28;20047;-71
2021/12/05 03:45:36;;;;;;;24.00;7.95;;;3.40;99.90;;;;;;5080963;28;20056;-70
2021/12/05 03:48:03;;;;;;;20.92;7.15;;;3.60;99.90;;;;;;5061883;28;20362;-71
2021/12/05 03:50:29;;;;;;;20.30;7.90;;;3.30;99.90;;;;;;5099556;28;20067;-70
2021/12/05 03:52:55;;;;;;;18.00;7.57;;;3.30;99.90;;;;;;5085515;28;20048;-70
2021/12/05 03:55:22;;;;;;;20.95;7.30;;;3.30;99.90;;;;;;5083673;28;20479;-70
2021/12/05 03:57:48;;;;;;;17.48;6.93;;;3.20;99.90;;;;;;5102884;28;20043;-70
2021/12/05 04:00:20;;;;;;;22.27;7.15;;;3.30;99.90;;;;;;5080112;28;20122;-70
2021/12/05 04:02:49;;;;;;;16.75;6.65;;;3.20;99.90;;;;;;5100771;28;20507;-70
2021/12/05 04:05:15;;;;;;;18.10;6.50;;;3.20;99.90;;;;;;5081680;28;20039;-70
2021/12/05 04:07:41;;;;;;;18.45;6.07;;;3.10;99.90;;;;;;5083236;28;20036;-70
2021/12/05 04:10:07;;;;;;;22.33;6.15;;;3.10;99.90;;;;;;5078273;28;20048;-70
2021/12/05 04:12:33;;;;;;;20.95;5.88;;;3.10;99.90;;;;;;5079980;28;20136;-70
2021/12/05 04:14:59;;;;;;;14.90;5.90;;;3.10;99.90;;;;;;5082515;28;20499;-70
2021/12/05 04:17:25;;;;;;;20.15;6.10;;;3.10;99.90;;;;;;5107414;28;20039;-70
2021/12/05 04:19:51;;;;;;;15.38;5.60;;;3.00;99.90;;;;;;5110839;28;20039;-70
2021/12/05 04:22:17;;;;;;;20.60;5.88;;;3.00;99.90;;;;;;5087438;28;20035;-70
2021/12/05 04:24:44;;;;;;;15.30;5.60;;;3.00;99.90;;;;;;5085195;28;20036;-70
2021/12/05 04:27:11;;;;;;;14.40;5.38;;;3.00;99.90;;;;;;5072390;28;20119;-70
2021/12/05 04:29:37;;;;;;;14.40;5.65;;;3.00;99.90;;;;;;5089993;28;20388;-70
2021/12/05 04:32:04;;;;;;;15.13;5.63;;;2.90;99.90;;;;;;5092019;28;20081;-70
2021/12/05 04:34:30;;;;;;;15.45;5.30;;;3.00;99.90;;;;;;5089074;28;20094;-70
2021/12/05 04:36:58;;;;;;;18.83;5.50;;;2.90;99.90;;;;;;5088339;28;20045;-70
2021/12/05 04:39:27;;;;;;;21.90;5.47;;;2.90;99.90;;;;;;5087529;28;20063;-70
2021/12/05 04:41:54;;;;;;;16.67;4.60;;;2.90;99.90;;;;;;5081572;28;20048;-70
2021/12/05 04:44:22;;;;;;;15.57;4.55;;;2.80;99.90;;;;;;5086883;28;20341;-70
2021/12/05 04:46:47;;;;;;;11.82;4.05;;;2.90;99.90;;;;;;5089566;28;20047;-70
2021/12/05 04:49:13;;;;;;;16.80;4.57;;;2.80;99.90;;;;;;5088096;28;20058;-70
2021/12/05 04:51:41;;;;;;;15.55;4.22;;;2.80;99.90;;;;;;5089480;28;20036;-70
2021/12/05 04:54:10;;;;;;;17.73;4.72;;;2.80;99.90;;;;;;5079196;28;20058;-70
2021/12/05 04:56:37;;;;;;;15.10;5.10;;;2.70;99.90;;;;;;5085475;28;20401;-70
2021/12/05 04:59:04;;;;;;;15.50;4.70;;;2.70;99.90;;;;;;5086156;28;20417;-70
2021/12/05 05:01:31;;;;;;;20.17;5.13;;;2.80;99.90;;;;;;5088326;28;20039;-70
2021/12/05 05:03:58;;;;;;;18.85;4.32;;;2.70;99.90;;;;;;5088445;28;20492;-70
2021/12/05 05:06:23;;;;;;;16.15;4.63;;;2.70;99.90;;;;;;5088383;28;20056;-70
2021/12/05 05:08:54;;;;;;;13.68;4.50;;;2.70;99.90;;;;;;5105670;28;20044;-70
2021/12/05 05:11:22;;;;;;;21.33;4.72;;;2.60;99.90;;;;;;5108371;28;20039;-70
2021/12/05 05:13:49;;;;;;;16.95;5.15;;;2.60;99.90;;;;;;5084811;28;20093;-70
2021/12/05 05:16:17;;;;;;;20.52;4.75;;;2.60;99.90;;;;;;5072396;28;20451;-70
2021/12/05 05:18:48;;;;;;;17.27;4.75;;;2.60;99.90;;;;;;5106001;28;20039;-70
2021/12/05 05:30:03;;;;;;;18.52;4.68;;;2.70;99.90;;;;;;5086262;28;21390;-70
2021/12/05 05:48:42;;;;;;;17.90;4.80;;;3.10;99.90;;;;;;5085167;28;20051;-70
2021/12/05 05:51:11;;;;;;;19.25;5.03;;;3.10;99.90;;;;;;5086547;28;20043;-70
2021/12/05 05:53:37;;;;;;;18.13;5.28;;;3.20;99.90;;;;;;5081688;28;20077;-70
2021/12/05 05:56:06;;;;;;;16.15;5.07;;;3.20;99.90;;;;;;5085035;28;20043;-70
2021/12/05 05:58:46;;;;;;;20.33;6.15;;;3.30;99.90;;;;;;5085569;28;20463;-70
2021/12/05 06:04:02;;;;;;;15.32;5.70;;;3.30;99.90;;;;;;5055295;28;20052;-70
2021/12/05 06:06:30;;;;;;;23.27;6.07;;;3.40;99.90;;;;;;5090274;28;20406;-70
2021/12/05 06:08:57;;;;;;;17.83;5.97;;;3.40;99.90;;;;;;5103506;28;20054;-70
2021/12/05 06:11:23;;;;;;;19.85;6.70;;;3.50;99.90;;;;;;5086721;28;20611;-70
2021/12/05 06:13:49;;;;;;;18.33;7.70;;;3.50;99.90;;;;;;5083427;28;20103;-70
2021/12/05 06:16:16;;;;;;;19.95;7.72;;;3.50;99.90;;;;;;5087270;28;20112;-70
2021/12/05 06:18:42;;;;;;;19.85;8.32;;;3.60;99.90;;;;;;5083167;28;20051;-70
2021/12/05 06:21:09;;;;;;;19.50;8.32;;;3.60;99.90;;;;;;5064531;28;20728;-70
2021/12/05 06:23:36;;;;;;;21.85;8.57;;;3.60;99.90;;;;;;5102175;28;20035;-70
2021/12/05 06:26:02;;;;;;;21.20;8.48;;;3.70;99.90;;;;;;5088999;28;20036;-70
2021/12/05 06:28:39;;;;;;;16.90;7.70;;;3.60;99.90;;;;;;5066406;28;20422;-70
2021/12/05 06:31:25;;;;;;;23.60;8.85;;;3.70;99.90;;;;;;5083813;28;20048;-70
2021/12/05 06:46:59;;;;;;;18.27;8.13;;;3.80;99.90;;;;;;5086888;28;20045;-70
2021/12/05 06:49:24;;;;;;;19.60;9.38;;;3.80;99.90;;;;;;5083377;28;20040;-70
2021/12/05 06:51:50;;;;;;;21.70;8.73;;;3.80;99.90;;;;;;5083752;28;20043;-70
2021/12/05 06:54:16;;;;;;;18.25;8.23;;;3.80;99.90;;;;;;5080542;28;20050;-70
2021/12/05 06:56:41;;;;;;;22.95;9.15;;;3.90;99.90;;;;;;5086040;28;20389;-70
2021/12/05 06:59:07;;;;;;;21.83;8.55;;;3.90;99.90;;;;;;5084805;28;20536;-70
2021/12/05 07:01:33;;;;;;;18.83;8.77;;;3.90;99.90;;;;;;5083936;28;20058;-70
2021/12/05 07:04:06;;;;;;;23.25;9.48;;;3.90;99.90;;;;;;5099082;28;20035;-70
2021/12/05 07:06:33;;;;;;;27.67;9.45;;;3.80;99.90;;;;;;5103496;28;20132;-70
2021/12/05 07:09:07;;;;;;;24.20;9.07;;;3.90;99.90;;;;;;5103253;28;20047;-70
2021/12/05 07:16:54;;;;;;;20.48;8.85;;;3.90;99.90;;;;;;5066654;28;20153;-70
2021/12/05 07:19:31;;;;;;;22.25;9.10;;;3.90;99.90;;;;;;5083596;28;20392;-69
2021/12/05 07:22:00;;;;;;;18.33;8.90;;;4.00;99.90;;;;;;5095580;28;20039;-70
2021/12/05 07:40:23;;;;;;;19.45;10.30;;;4.00;99.90;;;;;;5102089;28;20186;-70
2021/12/05 07:40:30;;;;;;;19.70;10.00;;;4.10;99.90;;;;;;5088609;28;20119;-70
2021/12/05 07:43:03;;;;;;;18.25;9.45;;;4.10;99.90;;;;;;5071516;28;20036;-70
2021/12/05 07:45:35;;;;;;;20.85;10.07;;;4.10;99.90;;;;;;5087010;28;20043;-70
2021/12/05 07:48:11;;;;;;;18.95;10.07;;;4.10;99.90;;;;;;5084701;28;20084;-71
2021/12/05 07:50:56;;;;;;;20.35;10.15;;;4.10;99.90;;;;;;5081048;28;20064;-71
2021/12/05 07:53:31;;;;;;;19.15;10.10;;;4.10;99.90;;;;;;5083727;28;20599;-71
2021/12/05 07:56:04;;;;;;;20.07;9.97;;;4.10;99.90;;;;;;5089316;28;20424;-70
2021/12/05 08:14:54;;;;;;;15.45;8.88;;;4.00;99.90;;;;;;5076079;28;20131;-70
2021/12/05 08:17:21;;;;;;;16.05;9.25;;;4.10;99.90;;;;;;5106570;28;20411;-69
2021/12/05 08:19:47;;;;;;;20.10;9.52;;;4.10;99.90;;;;;;5085888;28;20047;-69
2021/12/05 08:22:14;;;;;;;18.17;8.73;;;4.10;99.90;;;;;;5091332;28;20493;-69
2021/12/05 08:24:41;;;;;;;18.55;9.13;;;4.10;99.90;;;;;;5074071;28;20039;-70
2021/12/05 08:27:09;;;;;;;16.67;9.30;;;4.10;99.90;;;;;;5106492;28;20035;-69
2021/12/05 08:29:47;;;;;;;21.45;8.90;;;4.20;99.90;;;;;;5111250;28;20056;-70
2021/12/05 09:26:11;;;;;;;14.68;8.00;;;4.20;99.90;;;;;;5071917;28;20504;-71
2021/12/05 09:29:11;;;;;;;14.70;6.90;;;4.20;99.90;;;;;;5085534;28;20053;-70
2021/12/05 09:40:09;;;;;;;13.57;6.78;;;4.20;99.90;;;;;;5084381;28;20375;-70
2021/12/05 10:07:54;;;;;;;17.65;7.05;;;4.30;99.90;;;;;;5100004;28;20048;-69
2021/12/05 10:26:42;;;;;;;14.75;6.00;;;4.40;99.90;;;;;;5103842;28;20438;-69
2021/12/05 10:37:25;;;;;;;9.13;5.75;;;4.50;99.90;;;;;;5084786;28;20036;-70
2021/12/05 10:40:10;;;;;;;12.15;6.22;;;4.40;99.90;;;;;;5088927;28;20085;-70
2021/12/05 10:42:44;;;;;;;12.20;6.45;;;4.40;99.90;;;;;;5081904;28;20031;-69
2021/12/05 10:45:31;;;;;;;12.52;6.28;;;4.40;99.90;;;;;;5083905;28;20043;-69
2021/12/05 10:48:00;;;;;;;16.60;6.05;;;4.40;99.90;;;;;;5087563;28;20047;-69
2021/12/05 10:50:38;;;;;;;9.77;6.50;;;4.60;99.90;;;;;;5069503;28;20047;-69
2021/12/05 10:53:45;;;;;;;13.45;6.45;;;4.50;99.90;;;;;;5085642;28;20040;-70
2021/12/05 10:56:22;;;;;;;13.10;6.72;;;4.50;99.90;;;;;;5029133;28;20033;-70
2021/12/05 10:59:02;;;;;;;13.50;6.28;;;4.50;99.90;;;;;;5084244;28;20591;-70
2021/12/05 11:01:34;;;;;;;17.80;6.60;;;4.50;99.90;;;;;;5085489;28;20708;-71
2021/12/05 11:04:10;;;;;;;14.15;6.97;;;4.50;99.90;;;;;;5083783;28;20091;-69
2021/12/05 11:06:35;;;;;;;;;;;4.60;99.90;;;;;;5079105;28;20045;-65
2021/12/05 11:09:06;;;;;;;8.77;5.77;;;4.60;99.90;;;;;;5103387;28;19916;-63
2021/12/05 11:11:33;;;;;;;11.73;6.07;;;4.80;99.90;;;;;;5102352;28;20075;-71
2021/12/05 11:14:02;;;;;;;11.65;6.32;;;4.80;99.90;;;;;;5099871;28;20042;-72
2021/12/05 11:16:34;;;;;;;10.57;6.18;;;4.80;99.90;;;;;;5082840;28;20097;-72
2021/12/05 11:19:00;;;;;;;12.02;6.43;;;4.80;99.90;;;;;;5083885;28;20684;-72
2021/12/05 11:21:33;;;;;;;14.85;6.05;;;4.90;99.90;;;;;;5084173;28;20046;-72
2021/12/05 11:24:10;;;;;;;10.70;6.55;;;4.90;99.90;;;;;;5086566;28;20040;-72
2021/12/05 11:26:39;;;;;;;13.45;6.57;;;5.00;99.90;;;;;;5102210;28;20047;-72
2021/12/05 11:29:05;;;;;;;13.25;5.95;;;5.10;99.90;;;;;;5080423;28;20082;-72
2021/12/05 11:31:32;;;;;;;14.88;6.05;;;5.10;99.90;;;;;;5080626;28;20056;-71
2021/12/05 11:33:58;;;;;;;10.90;5.78;;;5.20;99.90;;;;;;5081749;28;20362;-72
2021/12/05 11:36:31;;;;;;;11.40;6.22;;;5.30;99.90;;;;;;5082190;28;20064;-72
2021/12/05 11:38:57;;;;;;;10.45;6.40;;;5.40;99.90;;;;;;5099998;28;20043;-71
2021/12/05 11:41:23;;;;;;;7.93;5.47;;;5.50;99.90;;;;;;5085746;28;20052;-69
2021/12/05 11:43:53;;;;;;;10.93;5.63;;;5.50;99.90;;;;;;5073759;28;20040;-70
2021/12/05 11:46:31;;;;;;;9.48;5.35;;;5.50;99.90;;;;;;5076752;28;20044;-71
2021/12/05 11:49:03;;;;;;;8.73;5.13;;;5.60;99.90;;;;;;5079626;28;20672;-71
2021/12/05 11:51:45;;;;;;;7.38;5.60;;;5.50;99.90;;;;;;5081774;28;20341;-71
2021/12/05 11:54:22;;;;;;;7.78;5.10;;;5.60;99.90;;;;;;5095777;28;20044;-71
2021/12/05 11:56:59;;;;;;;10.10;5.40;;;5.70;99.90;;;;;;5079547;28;20152;-71
2021/12/05 11:59:36;;;;;;;10.02;5.65;;;5.70;99.90;;;;;;5099023;28;20032;-71
2021/12/05 12:02:09;;;;;;;9.70;6.22;;;5.80;99.90;;;;;;5082219;28;20841;-71
2021/12/05 12:04:44;;;;;;;8.40;5.70;;;5.80;99.90;;;;;;5061517;28;20041;-71
2021/12/05 12:07:18;;;;;;;8.38;6.50;;;5.80;99.90;;;;;;5078275;28;20144;-71
2021/12/05 12:09:46;;;;;;;8.23;5.38;;;5.80;99.90;;;;;;5082501;28;20107;-70
2021/12/05 12:12:13;;;;;;;6.45;5.10;;;5.90;99.90;;;;;;5081384;28;20116;-71
2021/12/05 12:14:39;;;;;;;9.25;5.57;;;6.00;99.90;;;;;;5079879;28;20043;-71
2021/12/05 12:17:09;;;;;;;9.32;5.25;;;5.90;99.90;;;;;;5061601;28;20059;-71
2021/12/05 12:19:36;;;;;;;9.32;5.35;;;5.90;99.90;;;;;;5081132;28;20516;-71
2021/12/05 12:22:04;;;;;;;6.93;4.53;;;5.90;99.90;;;;;;5074562;28;20061;-71
2021/12/05 12:24:31;;;;;;;7.82;4.80;;;5.90;99.90;;;;;;5078452;28;20048;-71
2021/12/05 12:26:58;;;;;;;6.60;4.55;;;5.90;99.90;;;;;;5076364;28;20063;-71
2021/12/05 12:29:26;;;;;;;7.30;4.60;;;5.80;99.90;;;;;;5064563;28;21215;-71
2021/12/05 12:31:58;;;;;;;8.75;5.10;;;5.90;99.90;;;;;;5078709;28;20059;-72
2021/12/05 12:34:26;;;;;;;9.18;5.05;;;5.90;99.90;;;;;;5080877;28;20043;-71
2021/12/05 12:36:58;;;;;;;7.63;5.25;;;5.90;99.90;;;;;;5062717;28;20040;-71
2021/12/05 12:39:31;;;;;;;7.88;5.18;;;5.90;99.90;;;;;;5080602;28;20480;-70
2021/12/05 12:42:13;;;;;;;8.95;5.15;;;5.90;99.90;;;;;;5083587;28;20043;-71
2021/12/05 12:45:15;;;;;;;7.18;4.85;;;5.90;99.90;;;;;;5083893;28;20123;-71
2021/12/05 12:47:50;;;;;;;7.20;4.68;;;5.80;99.90;;;;;;5080554;28;20090;-71
2021/12/05 12:50:25;;;;;;;6.47;4.63;;;5.80;99.90;;;;;;5082326;28;20039;-72
2021/12/05 12:53:29;;;;;;;8.57;4.97;;;5.70;99.90;;;;;;5082107;28;20310;-72
2021/12/05 12:56:17;;;;;;;6.47;5.28;;;5.70;99.90;;;;;;5102754;28;20119;-70
2021/12/05 12:59:00;;;;;;;6.85;5.38;;;5.70;99.90;;;;;;5080975;28;20062;-70
2021/12/05 13:04:33;;;;;;;9.60;5.40;;;5.60;99.90;;;;;;5082343;28;20388;-72
2021/12/05 13:10:00;;;;;;;5.90;4.73;;;5.60;99.90;;;;;;5076935;28;20072;-72
2021/12/05 13:10:23;;;;;;;7.20;4.95;;;5.60;99.90;;;;;;5083261;28;20279;-71
2021/12/05 13:12:58;;;;;;;9.45;5.25;;;5.60;99.90;;;;;;5083052;28;20067;-71
2021/12/05 13:15:24;;;;;;;9.82;4.93;;;5.50;99.90;;;;;;5084074;28;20079;-71
2021/12/05 13:18:00;;;;;;;7.28;4.80;;;5.50;99.90;;;;;;5084880;28;20097;-71
2021/12/05 13:20:53;;;;;;;8.43;4.95;;;5.50;99.90;;;;;;5081423;28;20044;-71
2021/12/05 13:23:38;;;;;;;6.13;5.20;;;5.50;99.90;;;;;;5100805;28;20075;-71
2021/12/05 13:26:06;;;;;;;8.02;4.30;;;5.50;99.90;;;;;;5084506;28;20047;-71
2021/12/05 13:28:42;;;;;;;9.07;5.38;;;5.50;99.90;;;;;;5067520;28;20082;-71
2021/12/05 13:31:27;;;;;;;7.93;4.82;;;5.50;99.90;;;;;;5084409;28;20523;-71
2021/12/05 13:34:14;;;;;;;8.95;4.57;;;5.50;99.90;;;;;;5085654;28;20527;-71
2021/12/05 13:36:42;;;;;;;8.32;5.13;;;5.50;99.90;;;;;;5102946;28;20048;-71
2021/12/05 13:39:39;;;;;;;8.05;4.43;;;5.40;99.90;;;;;;5087604;28;20094;-71
2021/12/05 13:42:12;;;;;;;5.95;4.45;;;5.40;99.90;;;;;;5083477;28;20043;-71
2021/12/05 13:45:00;;;;;;;8.35;4.85;;;5.40;99.90;;;;;;5085381;28;20626;-71
2021/12/05 13:47:58;;;;;;;9.52;5.15;;;5.30;99.90;;;;;;5102118;28;20067;-71
2021/12/05 13:50:31;;;;;;;11.55;5.40;;;5.30;99.90;;;;;;5067269;28;20677;-71
2021/12/05 13:53:02;;;;;;;8.05;4.95;;;5.40;99.90;;;;;;5088431;28;20043;-71
2021/12/05 13:55:43;;;;;;;8.77;4.45;;;5.50;99.90;;;;;;5088388;28;20029;-71
2021/12/05 13:58:21;;;;;;;9.65;4.22;;;5.40;99.90;;;;;;5086561;28;20032;-71
2021/12/05 14:00:56;;;;;;;6.50;4.47;;;5.40;99.90;;;;;;5085437;28;20047;-71
2021/12/05 14:03:59;;;;;;;7.93;4.57;;;5.40;99.90;;;;;;5084981;28;20051;-71
2021/12/05 14:06:27;;;;;;;11.20;5.45;;;5.50;99.90;;;;;;5104072;28;20400;-71
2021/12/05 14:08:58;;;;;;;6.32;4.57;;;5.50;99.90;;;;;;5085641;28;20044;-71
2021/12/05 14:11:25;;;;;;;5.82;4.38;;;5.50;99.90;;;;;;5086647;28;20173;-71
2021/12/05 14:13:51;;;;;;;7.32;4.15;;;5.60;99.90;;;;;;5081465;28;20397;-71
2021/12/05 14:16:18;;;;;;;7.43;4.50;;;5.60;99.90;;;;;;5082636;28;20047;-71
2021/12/05 14:18:44;;;;;;;7.35;4.43;;;5.60;99.90;;;;;;5066982;28;20044;-71
2021/12/05 14:21:20;;;;;;;7.88;5.25;;;5.60;99.90;;;;;;5087350;28;20048;-71
2021/12/05 14:23:55;;;;;;;5.53;4.15;;;5.60;99.90;;;;;;5064266;28;20043;-71
2021/12/05 14:26:27;;;;;;;7.85;4.30;;;5.60;99.90;;;;;;5082835;28;20124;-71
2021/12/05 14:28:57;;;;;;;8.25;4.78;;;5.60;99.90;;;;;;5069141;28;20043;-71
2021/12/05 14:31:28;;;;;;;6.20;4.70;;;5.60;99.90;;;;;;5084642;28;20496;-71
2021/12/05 14:33:55;;;;;;;5.95;4.50;;;5.60;99.90;;;;;;5080396;28;20044;-71
2021/12/05 14:36:25;;;;;;;8.15;4.57;;;5.50;99.90;;;;;;5081589;28;20044;-71
2021/12/05 14:39:14;;;;;;;7.80;4.72;;;5.60;99.90;;;;;;5085027;28;20055;-71
2021/12/05 14:41:42;;;;;;;7.03;4.70;;;5.60;99.90;;;;;;5102694;28;20079;-71
2021/12/05 14:44:08;;;;;;;7.43;4.90;;;5.60;99.90;;;;;;5082780;28;20044;-71
2021/12/05 14:46:55;;;;;;;7.60;5.35;;;5.60;99.90;;;;;;5083348;28;20047;-71
2021/12/05 14:49:23;;;;;;;8.95;4.75;;;5.60;99.90;;;;;;5083607;28;20053;-71
2021/12/05 14:51:50;;;;;;;7.85;5.18;;;5.60;99.90;;;;;;5081440;28;20044;-71
2021/12/05 14:54:22;;;;;;;6.78;4.32;;;5.50;99.90;;;;;;5084703;28;20043;-71
2021/12/05 14:56:49;;;;;;;6.32;4.80;;;5.50;99.90;;;;;;5102323;28;20044;-71
2021/12/05 14:59:15;;;;;;;8.70;5.55;;;5.50;99.90;;;;;;5080670;28;20036;-71
2021/12/05 15:01:46;;;;;;;9.27;5.53;;;5.50;99.90;;;;;;5081260;28;20052;-71
2021/12/05 15:04:17;;;;;;;7.47;5.15;;;5.40;99.90;;;;;;5085061;28;20401;-71
2021/12/05 15:06:44;;;;;;;12.18;7.38;;;5.40;99.90;;;;;;5063641;28;20048;-71
2021/12/05 15:09:21;;;;;;;11.25;7.30;;;5.70;99.90;;;;;;5085007;28;20041;-71
2021/12/05 15:11:59;;;;;;;13.32;8.02;;;5.50;99.90;;;;;;5077494;28;20051;-71
2021/12/05 15:14:25;;;;;;;11.38;7.03;;;5.40;99.90;;;;;;5083158;28;20043;-71
2021/12/05 15:17:06;;;;;;;19.95;9.75;;;5.60;99.90;;;;;;5079918;28;20421;-71
2021/12/05 15:19:33;;;;;;;23.27;12.63;;;5.40;99.90;;;;;;5083437;28;20084;-71
2021/12/05 15:22:01;;;;;;;26.23;14.80;;;5.40;99.90;;;;;;5068657;28;20122;-71
2021/12/05 15:24:27;;;;;;;38.42;18.73;;;5.40;99.90;;;;;;5083154;28;20047;-71
2021/12/05 15:26:56;;;;;;;15.75;7.65;;;5.40;99.90;;;;;;5080357;28;20036;-71
2021/12/05 15:29:23;;;;;;;9.43;6.28;;;5.40;99.90;;;;;;5084769;28;20044;-71
2021/12/05 15:31:49;;;;;;;9.60;7.22;;;5.40;99.90;;;;;;5053766;28;20369;-71
2021/12/05 15:34:34;;;;;;;13.48;9.65;;;5.40;99.90;;;;;;5085368;28;20044;-71
2021/12/05 15:37:07;;;;;;;14.75;10.68;;;5.30;99.90;;;;;;5075647;28;20028;-75
2021/12/05 15:39:34;;;;;;;25.73;15.65;;;5.30;99.90;;;;;;5078782;28;20040;-70
2021/12/05 15:42:00;;;;;;;14.75;10.77;;;5.60;99.90;;;;;;5060320;28;20054;-70
2021/12/05 15:44:33;;;;;;;13.32;9.90;;;5.30;99.90;;;;;;5062779;28;20048;-70
2021/12/05 15:47:05;;;;;;;11.80;6.72;;;5.30;99.90;;;;;;5077651;28;20072;-70
2021/12/05 15:50:08;;;;;;;8.93;6.70;;;5.30;99.90;;;;;;5082496;28;20123;-71
2021/12/05 15:52:47;;;;;;;9.18;6.82;;;5.20;99.90;;;;;;4982599;28;20071;-70
2021/12/05 15:55:36;;;;;;;9.57;7.00;;;5.20;99.90;;;;;;5070266;28;20055;-70
2021/12/05 15:58:30;;;;;;;10.85;7.78;;;5.20;99.90;;;;;;5081097;28;20059;-70
2021/12/05 16:01:13;;;;;;;11.35;7.53;;;5.20;99.90;;;;;;5092930;28;20040;-70
2021/12/05 16:03:43;;;;;;;9.00;5.95;;;5.10;99.90;;;;;;5099322;28;20116;-70
2021/12/05 16:06:10;;;;;;;9.98;7.10;;;5.10;99.90;;;;;;5094974;28;20063;-70
2021/12/05 16:08:36;;;;;;;8.18;6.60;;;5.00;99.90;;;;;;5080736;28;20040;-70
2021/12/05 16:11:09;;;;;;;13.07;8.80;;;5.00;99.90;;;;;;5059785;28;20048;-70
2021/12/05 16:13:40;;;;;;;10.73;7.90;;;5.00;99.90;;;;;;5100721;28;20040;-70
2021/12/05 16:16:10;;;;;;;11.88;8.30;;;4.90;99.90;;;;;;5078919;28;20045;-70
2021/12/05 16:18:38;;;;;;;12.18;8.45;;;4.90;99.90;;;;;;5099429;28;20063;-70
2021/12/05 16:21:13;;;;;;;13.15;8.52;;;4.90;99.90;;;;;;5085183;28;20143;-70
2021/12/05 16:23:39;;;;;;;11.95;8.35;;;4.90;99.90;;;;;;5084337;28;20035;-70
2021/12/05 16:26:19;;;;;;;11.73;8.93;;;4.90;99.90;;;;;;5080152;28;20043;-70
2021/12/05 16:28:55;;;;;;;10.27;7.43;;;4.90;99.90;;;;;;5096675;28;20051;-71
2021/12/05 16:31:30;;;;;;;15.60;7.82;;;4.90;99.90;;;;;;5078377;28;20123;-70
2021/12/05 16:34:05;;;;;;;10.57;8.65;;;4.80;99.90;;;;;;5076798;28;20040;-71
2021/12/05 16:36:58;;;;;;;13.27;8.45;;;4.80;99.90;;;;;;5088812;28;20040;-71
2021/12/05 16:39:32;;;;;;;14.55;8.48;;;4.90;99.90;;;;;;5078899;28;20437;-71
2021/12/05 16:42:05;;;;;;;13.07;9.30;;;4.90;99.90;;;;;;5087448;28;20043;-71
2021/12/05 16:44:34;;;;;;;13.60;9.18;;;4.90;99.90;;;;;;5082182;28;20055;-71
2021/12/05 16:47:15;;;;;;;12.65;10.15;;;4.80;99.90;;;;;;5086216;28;20040;-71
2021/12/05 16:49:48;;;;;;;15.02;11.70;;;5.50;99.90;;;;;;5104015;28;20066;-71
2021/12/05 16:52:23;;;;;;;14.48;11.68;;;4.80;99.90;;;;;;5081128;28;20060;-72
2021/12/05 16:54:57;;;;;;;17.40;11.07;;;4.80;99.90;;;;;;5080185;28;20498;-71
2021/12/05 16:57:34;;;;;;;14.65;11.15;;;4.80;99.90;;;;;;5083393;28;20032;-71
2021/12/05 17:00:13;;;;;;;15.65;11.13;;;4.80;99.90;;;;;;5083818;28;20058;-71
2021/12/05 17:02:50;;;;;;;13.82;11.20;;;4.80;99.90;;;;;;5090469;28;20035;-71
2021/12/05 17:05:51;;;;;;;12.13;9.18;;;4.80;99.90;;;;;;5087627;28;20059;-71
2021/12/05 17:08:26;;;;;;;10.80;8.57;;;4.80;99.90;;;;;;5080779;28;20411;-72
2021/12/05 17:11:03;;;;;;;14.70;9.83;;;4.80;99.90;;;;;;5071446;28;20036;-72
2021/12/05 17:13:37;;;;;;;14.18;10.02;;;4.80;99.90;;;;;;5087397;28;20108;-72
2021/12/05 17:16:13;;;;;;;15.20;10.45;;;4.80;99.90;;;;;;5091623;28;20118;-72
2021/12/05 17:18:44;;;;;;;16.42;10.75;;;4.80;99.90;;;;;;5090424;28;20042;-71
2021/12/05 17:21:41;;;;;;;13.40;10.65;;;4.70;99.90;;;;;;5106344;28;20130;-69
2021/12/05 17:24:26;;;;;;;13.77;9.45;;;4.80;99.90;;;;;;5086845;28;20081;-71
2021/12/05 17:26:59;;;;;;;10.82;8.48;;;4.80;99.90;;;;;;5088852;28;20079;-71
2021/12/05 17:29:34;;;;;;;13.77;8.95;;;4.80;99.90;;;;;;5087314;28;20042;-71
2021/12/05 17:32:21;;;;;;;12.07;8.98;;;4.80;99.90;;;;;;5090175;28;20047;-71
2021/12/05 17:34:50;;;;;;;14.13;8.40;;;4.80;99.90;;;;;;5105947;28;20089;-71
2021/12/05 17:37:22;;;;;;;11.95;8.40;;;4.80;99.90;;;;;;5085443;28;20044;-71
2021/12/05 17:39:48;;;;;;;15.32;8.93;;;4.80;99.90;;;;;;5067300;28;20069;-72
2021/12/05 17:42:21;;;;;;;11.55;8.95;;;4.80;99.90;;;;;;5106045;28;20079;-71
2021/12/05 17:44:49;;;;;;;14.63;9.50;;;5.20;99.90;;;;;;5104568;28;20040;-71
2021/12/05 17:47:17;;;;;;;11.10;8.70;;;4.80;99.90;;;;;;5083272;28;20047;-71
2021/12/05 17:49:45;;;;;;;13.48;8.85;;;4.80;99.90;;;;;;5083924;28;20054;-71
2021/12/05 17:52:17;;;;;;;11.50;9.20;;;4.80;99.90;;;;;;5085316;28;20054;-71
2021/12/05 17:54:55;;;;;;;10.45;7.65;;;4.80;99.90;;;;;;5090496;28;20090;-71
2021/12/05 17:57:36;;;;;;;12.48;8.95;;;4.80;99.90;;;;;;5086090;28;20422;-71
2021/12/05 18:00:22;;;;;;;12.20;8.57;;;4.90;99.90;;;;;;5086284;28;20488;-71
2021/12/05 18:02:53;;;;;;;12.85;8.55;;;4.90;99.90;;;;;;5100073;28;20134;-72
2021/12/05 18:05:27;;;;;;;11.15;8.20;;;4.90;99.90;;;;;;5086093;28;20036;-71
2021/12/05 18:07:56;;;;;;;13.07;8.77;;;4.90;99.90;;;;;;5068954;28;20043;-71
2021/12/05 18:10:26;;;;;;;12.50;8.82;;;4.90;99.90;;;;;;5087698;28;20041;-71
2021/12/05 18:12:57;;;;;;;11.70;9.32;;;5.50;99.90;;;;;;5105944;28;20124;-71
2021/12/05 18:15:28;;;;;;;12.82;9.13;;;5.00;99.90;;;;;;5101959;28;20067;-71
2021/12/05 18:17:55;;;;;;;14.23;9.02;;;4.90;99.90;;;;;;5086331;28;20036;-70
2021/12/05 18:20:25;;;;;;;12.23;9.93;;;4.90;99.90;;;;;;5073845;28;20035;-71
2021/12/05 18:23:04;;;;;;;13.90;9.43;;;4.90;99.90;;;;;;5105602;28;20044;-71